sensor_id;sensor_type;location;lat;lon;timestamp;temperature;humidity
8593;DHT22;4334;49.982;8.398;2022-08-25T00:02:04;23.50;75.60
8593;DHT22;4334;49.982;8.398;2022-08-25T00:04:32;23.30;75.80
8593;DHT22;4334;49.982;8.398;2022-08-25T00:07:01;23.30;76.20
8593;DHT22;4334;49.982;8.398;2022-08-25T00:14:26;23.10;76.80
8593;DHT22;4334;49.982;8.398;2022-08-25T00:19:23;23.20;77.00
8593;DHT22;4334;49.982;8.398;2022-08-25T00:24:20;23.10;77.70
8593;DHT22;4334;49.982;8.398;2022-08-25T00:26:49;23.10;78.20
8593;DHT22;4334;49.982;8.398;2022-08-25T00:31:43;22.90;79.40
8593;DHT22;4334;49.982;8.398;2022-08-25T00:41:38;22.60;81.80
8593;DHT22;4334;49.982;8.398;2022-08-25T00:49:06;22.40;83.60
8593;DHT22;4334;49.982;8.398;2022-08-25T00:51:37;22.40;84.20
8593;DHT22;4334;49.982;8.398;2022-08-25T00:54:06;22.40;84.90
8593;DHT22;4334;49.982;8.398;2022-08-25T01:08:51;22.60;87.90
8593;DHT22;4334;49.982;8.398;2022-08-25T01:13:48;22.60;89.10
8593;DHT22;4334;49.982;8.398;2022-08-25T01:28:40;22.10;91.10
8593;DHT22;4334;49.982;8.398;2022-08-25T01:36:27;21.90;92.10
8593;DHT22;4334;49.982;8.398;2022-08-25T01:38:54;21.90;92.40
8593;DHT22;4334;49.982;8.398;2022-08-25T01:41:29;21.80;92.60
8593;DHT22;4334;49.982;8.398;2022-08-25T02:01:22;22.20;94.30
8593;DHT22;4334;49.982;8.398;2022-08-25T02:08:50;22.10;94.50
8593;DHT22;4334;49.982;8.398;2022-08-25T02:16:17;22.20;94.40
8593;DHT22;4334;49.982;8.398;2022-08-25T02:21:13;22.20;94.60
8593;DHT22;4334;49.982;8.398;2022-08-25T02:26:09;22.10;94.60
8593;DHT22;4334;49.982;8.398;2022-08-25T02:36:00;22.10;94.80
8593;DHT22;4334;49.982;8.398;2022-08-25T03:00:36;21.80;96.30
8593;DHT22;4334;49.982;8.398;2022-08-25T03:03:03;21.80;96.40
8593;DHT22;4334;49.982;8.398;2022-08-25T03:32:50;21.60;98.40
8593;DHT22;4334;49.982;8.398;2022-08-25T04:09:44;21.10;99.90
8593;DHT22;4334;49.982;8.398;2022-08-25T04:39:15;21.00;99.90
8593;DHT22;4334;49.982;8.398;2022-08-25T04:54:07;21.40;99.90
8593;DHT22;4334;49.982;8.398;2022-08-25T05:13:53;22.80;99.90
8593;DHT22;4334;49.982;8.398;2022-08-25T05:16:23;22.90;99.90
8593;DHT22;4334;49.982;8.398;2022-08-25T05:22:05;23.00;99.90
8593;DHT22;4334;49.982;8.398;2022-08-25T05:24:32;23.20;99.90
8593;DHT22;4334;49.982;8.398;2022-08-25T05:26:59;23.60;99.90
8593;DHT22;4334;49.982;8.398;2022-08-25T05:29:26;24.00;99.80
8593;DHT22;4334;49.982;8.398;2022-08-25T05:31:52;24.10;99.40
8593;DHT22;4334;49.982;8.398;2022-08-25T05:34:19;24.10;99.20
8593;DHT22;4334;49.982;8.398;2022-08-25T05:36:46;24.40;99.10
8593;DHT22;4334;49.982;8.398;2022-08-25T05:39:15;24.40;98.90
8593;DHT22;4334;49.982;8.398;2022-08-25T05:41:42;24.50;98.90
8593;DHT22;4334;49.982;8.398;2022-08-25T05:44:09;25.10;97.40
8593;DHT22;4334;49.982;8.398;2022-08-25T05:46:36;25.00;97.80
8593;DHT22;4334;49.982;8.398;2022-08-25T05:49:03;25.30;97.50
8593;DHT22;4334;49.982;8.398;2022-08-25T05:51:31;25.10;97.50
8593;DHT22;4334;49.982;8.398;2022-08-25T05:53:58;25.00;97.70
8593;DHT22;4334;49.982;8.398;2022-08-25T05:56:26;25.10;98.00
8593;DHT22;4334;49.982;8.398;2022-08-25T05:58:53;25.60;96.90
8593;DHT22;4334;49.982;8.398;2022-08-25T06:01:23;25.60;96.60
8593;DHT22;4334;49.982;8.398;2022-08-25T06:04:07;25.50;96.80
8593;DHT22;4334;49.982;8.398;2022-08-25T06:06:34;25.60;96.60
8593;DHT22;4334;49.982;8.398;2022-08-25T06:09:01;25.80;96.50
8593;DHT22;4334;49.982;8.398;2022-08-25T06:11:31;25.60;96.60
8593;DHT22;4334;49.982;8.398;2022-08-25T06:13:57;25.30;97.30
8593;DHT22;4334;49.982;8.398;2022-08-25T06:16:24;25.60;96.60
8593;DHT22;4334;49.982;8.398;2022-08-25T06:18:51;25.80;96.20
8593;DHT22;4334;49.982;8.398;2022-08-25T06:21:17;25.60;96.70
8593;DHT22;4334;49.982;8.398;2022-08-25T06:23:44;25.80;96.40
8593;DHT22;4334;49.982;8.398;2022-08-25T06:26:13;25.80;96.40
8593;DHT22;4334;49.982;8.398;2022-08-25T06:28:41;25.70;96.70
8593;DHT22;4334;49.982;8.398;2022-08-25T06:31:08;25.60;96.90
8593;DHT22;4334;49.982;8.398;2022-08-25T06:33:35;26.00;96.20
8593;DHT22;4334;49.982;8.398;2022-08-25T06:36:02;26.20;96.00
8593;DHT22;4334;49.982;8.398;2022-08-25T06:38:29;26.30;95.30
8593;DHT22;4334;49.982;8.398;2022-08-25T06:40:56;26.30;95.70
8593;DHT22;4334;49.982;8.398;2022-08-25T06:43:23;26.40;95.20
8593;DHT22;4334;49.982;8.398;2022-08-25T06:45:51;26.50;95.00
8593;DHT22;4334;49.982;8.398;2022-08-25T06:48:18;26.50;95.20
8593;DHT22;4334;49.982;8.398;2022-08-25T06:50:44;26.40;95.10
8593;DHT22;4334;49.982;8.398;2022-08-25T06:53:12;26.20;95.60
8593;DHT22;4334;49.982;8.398;2022-08-25T06:55:39;26.30;95.60
8593;DHT22;4334;49.982;8.398;2022-08-25T06:58:06;26.70;95.40
8593;DHT22;4334;49.982;8.398;2022-08-25T07:00:34;27.00;94.70
8593;DHT22;4334;49.982;8.398;2022-08-25T07:03:02;27.00;94.60
8593;DHT22;4334;49.982;8.398;2022-08-25T07:05:30;27.40;94.20
8593;DHT22;4334;49.982;8.398;2022-08-25T07:07:57;27.80;93.60
8593;DHT22;4334;49.982;8.398;2022-08-25T07:10:23;27.80;93.50
8593;DHT22;4334;49.982;8.398;2022-08-25T07:12:50;27.40;93.90
8593;DHT22;4334;49.982;8.398;2022-08-25T07:15:17;27.50;94.10
8593;DHT22;4334;49.982;8.398;2022-08-25T07:17:44;27.70;93.90
8593;DHT22;4334;49.982;8.398;2022-08-25T07:20:12;27.50;94.20
8593;DHT22;4334;49.982;8.398;2022-08-25T07:22:38;27.40;94.50
8593;DHT22;4334;49.982;8.398;2022-08-25T07:25:06;27.50;94.40
8593;DHT22;4334;49.982;8.398;2022-08-25T07:27:33;27.70;94.20
8593;DHT22;4334;49.982;8.398;2022-08-25T07:29:59;27.80;94.70
8593;DHT22;4334;49.982;8.398;2022-08-25T07:32:26;28.50;93.10
8593;DHT22;4334;49.982;8.398;2022-08-25T07:34:53;28.50;93.50
8593;DHT22;4334;49.982;8.398;2022-08-25T07:37:38;28.40;93.70
8593;DHT22;4334;49.982;8.398;2022-08-25T07:40:06;28.40;93.70
8593;DHT22;4334;49.982;8.398;2022-08-25T07:42:33;28.70;93.30
8593;DHT22;4334;49.982;8.398;2022-08-25T07:45:00;28.80;93.20
8593;DHT22;4334;49.982;8.398;2022-08-25T07:47:28;28.70;93.50
8593;DHT22;4334;49.982;8.398;2022-08-25T07:49:55;28.50;93.70
8593;DHT22;4334;49.982;8.398;2022-08-25T07:52:21;28.50;93.90
8593;DHT22;4334;49.982;8.398;2022-08-25T07:54:49;28.60;93.50
8593;DHT22;4334;49.982;8.398;2022-08-25T07:57:18;28.20;94.20
8593;DHT22;4334;49.982;8.398;2022-08-25T07:59:46;28.60;93.20
8593;DHT22;4334;49.982;8.398;2022-08-25T08:02:13;28.80;93.20
8593;DHT22;4334;49.982;8.398;2022-08-25T08:04:40;28.50;93.50
8593;DHT22;4334;49.982;8.398;2022-08-25T08:07:07;28.90;92.90
8593;DHT22;4334;49.982;8.398;2022-08-25T08:09:35;29.20;92.50
8593;DHT22;4334;49.982;8.398;2022-08-25T08:12:04;29.20;92.60
8593;DHT22;4334;49.982;8.398;2022-08-25T08:14:31;29.80;91.40
8593;DHT22;4334;49.982;8.398;2022-08-25T08:16:58;29.80;91.70
8593;DHT22;4334;49.982;8.398;2022-08-25T08:19:25;29.40;92.30
8593;DHT22;4334;49.982;8.398;2022-08-25T08:21:52;30.10;91.00
8593;DHT22;4334;49.982;8.398;2022-08-25T08:24:19;30.30;90.40
8593;DHT22;4334;49.982;8.398;2022-08-25T08:26:45;30.10;90.70
8593;DHT22;4334;49.982;8.398;2022-08-25T08:29:14;29.90;91.20
8593;DHT22;4334;49.982;8.398;2022-08-25T08:31:41;29.80;91.20
8593;DHT22;4334;49.982;8.398;2022-08-25T08:34:07;29.90;91.40
8593;DHT22;4334;49.982;8.398;2022-08-25T08:36:34;30.00;91.40
8593;DHT22;4334;49.982;8.398;2022-08-25T08:39:01;31.10;88.50
8593;DHT22;4334;49.982;8.398;2022-08-25T08:41:49;30.80;87.20
8593;DHT22;4334;49.982;8.398;2022-08-25T08:44:44;30.40;88.30
8593;DHT22;4334;49.982;8.398;2022-08-25T08:47:26;30.20;89.00
8593;DHT22;4334;49.982;8.398;2022-08-25T08:50:03;31.00;86.50
8593;DHT22;4334;49.982;8.398;2022-08-25T08:52:37;31.40;84.90
8593;DHT22;4334;49.982;8.398;2022-08-25T08:55:09;31.70;84.70
8593;DHT22;4334;49.982;8.398;2022-08-25T08:57:43;31.50;83.00
8593;DHT22;4334;49.982;8.398;2022-08-25T09:00:14;31.30;83.50
8593;DHT22;4334;49.982;8.398;2022-08-25T09:02:46;31.20;83.10
8593;DHT22;4334;49.982;8.398;2022-08-25T09:05:16;30.80;83.90
8593;DHT22;4334;49.982;8.398;2022-08-25T09:07:47;30.80;84.30
8593;DHT22;4334;49.982;8.398;2022-08-25T09:10:15;30.60;83.80
8593;DHT22;4334;49.982;8.398;2022-08-25T09:12:46;30.60;83.90
8593;DHT22;4334;49.982;8.398;2022-08-25T09:15:22;30.90;82.50
8593;DHT22;4334;49.982;8.398;2022-08-25T09:18:20;31.00;82.10
8593;DHT22;4334;49.982;8.398;2022-08-25T09:21:03;30.90;82.70
8593;DHT22;4334;49.982;8.398;2022-08-25T09:23:44;31.00;81.40
8593;DHT22;4334;49.982;8.398;2022-08-25T09:26:23;31.40;80.70
8593;DHT22;4334;49.982;8.398;2022-08-25T09:28:57;31.00;81.40
8593;DHT22;4334;49.982;8.398;2022-08-25T09:31:31;31.70;80.00
8593;DHT22;4334;49.982;8.398;2022-08-25T09:34:00;31.90;79.30
8593;DHT22;4334;49.982;8.398;2022-08-25T09:36:28;31.80;79.80
8593;DHT22;4334;49.982;8.398;2022-08-25T09:38:55;31.90;80.00
8593;DHT22;4334;49.982;8.398;2022-08-25T09:41:39;32.40;79.30
8593;DHT22;4334;49.982;8.398;2022-08-25T09:44:16;31.50;79.50
8593;DHT22;4334;49.982;8.398;2022-08-25T09:46:59;31.40;79.80
8593;DHT22;4334;49.982;8.398;2022-08-25T09:49:36;32.10;78.90
8593;DHT22;4334;49.982;8.398;2022-08-25T09:52:21;33.40;75.20
8593;DHT22;4334;49.982;8.398;2022-08-25T09:54:49;33.40;76.00
8593;DHT22;4334;49.982;8.398;2022-08-25T09:57:31;33.10;76.60
8593;DHT22;4334;49.982;8.398;2022-08-25T10:00:10;33.00;76.20
8593;DHT22;4334;49.982;8.398;2022-08-25T10:02:39;32.90;76.40
8593;DHT22;4334;49.982;8.398;2022-08-25T10:05:19;32.40;77.70
8593;DHT22;4334;49.982;8.398;2022-08-25T10:07:52;32.80;75.30
8593;DHT22;4334;49.982;8.398;2022-08-25T10:10:27;32.90;75.60
8593;DHT22;4334;49.982;8.398;2022-08-25T10:12:55;32.90;73.60
8593;DHT22;4334;49.982;8.398;2022-08-25T10:15:27;32.50;75.00
8593;DHT22;4334;49.982;8.398;2022-08-25T10:17:58;33.40;71.70
8593;DHT22;4334;49.982;8.398;2022-08-25T10:20:42;33.10;73.40
8593;DHT22;4334;49.982;8.398;2022-08-25T10:23:12;32.70;72.90
8593;DHT22;4334;49.982;8.398;2022-08-25T10:25:43;33.00;73.30
8593;DHT22;4334;49.982;8.398;2022-08-25T10:28:14;33.80;72.10
8593;DHT22;4334;49.982;8.398;2022-08-25T10:30:53;33.50;72.00
8593;DHT22;4334;49.982;8.398;2022-08-25T10:33:28;32.90;73.30
8593;DHT22;4334;49.982;8.398;2022-08-25T10:36:02;33.00;73.90
8593;DHT22;4334;49.982;8.398;2022-08-25T10:38:37;32.90;73.50
8593;DHT22;4334;49.982;8.398;2022-08-25T10:41:16;33.50;70.50
8593;DHT22;4334;49.982;8.398;2022-08-25T10:43:51;33.40;70.80
8593;DHT22;4334;49.982;8.398;2022-08-25T10:46:26;33.30;70.70
8593;DHT22;4334;49.982;8.398;2022-08-25T10:49:02;33.10;70.50
8593;DHT22;4334;49.982;8.398;2022-08-25T10:51:39;33.20;70.30
8593;DHT22;4334;49.982;8.398;2022-08-25T10:54:13;32.00;73.00
8593;DHT22;4334;49.982;8.398;2022-08-25T10:56:49;32.70;72.40
8593;DHT22;4334;49.982;8.398;2022-08-25T10:59:32;32.90;72.40
8593;DHT22;4334;49.982;8.398;2022-08-25T11:05:08;34.60;69.70
8593;DHT22;4334;49.982;8.398;2022-08-25T11:07:41;34.70;67.60
8593;DHT22;4334;49.982;8.398;2022-08-25T11:10:12;34.70;68.10
8593;DHT22;4334;49.982;8.398;2022-08-25T11:12:43;34.80;67.40
8593;DHT22;4334;49.982;8.398;2022-08-25T11:15:14;34.70;68.50
8593;DHT22;4334;49.982;8.398;2022-08-25T11:17:49;33.90;67.80
8593;DHT22;4334;49.982;8.398;2022-08-25T11:20:22;32.50;71.40
8593;DHT22;4334;49.982;8.398;2022-08-25T11:23:05;33.80;69.00
8593;DHT22;4334;49.982;8.398;2022-08-25T11:25:37;33.00;68.40
8593;DHT22;4334;49.982;8.398;2022-08-25T11:28:10;33.30;69.50
8593;DHT22;4334;49.982;8.398;2022-08-25T11:30:38;34.50;66.30
8593;DHT22;4334;49.982;8.398;2022-08-25T11:33:06;35.20;65.40
8593;DHT22;4334;49.982;8.398;2022-08-25T11:35:40;34.80;66.30
8593;DHT22;4334;49.982;8.398;2022-08-25T11:38:24;32.80;70.40
8593;DHT22;4334;49.982;8.398;2022-08-25T11:41:03;32.00;72.30
8593;DHT22;4334;49.982;8.398;2022-08-25T11:43:45;33.50;69.40
8593;DHT22;4334;49.982;8.398;2022-08-25T11:46:25;34.90;67.30
8593;DHT22;4334;49.982;8.398;2022-08-25T11:48:59;35.10;65.90
8593;DHT22;4334;49.982;8.398;2022-08-25T11:51:32;34.60;66.80
8593;DHT22;4334;49.982;8.398;2022-08-25T11:54:18;34.80;67.10
8593;DHT22;4334;49.982;8.398;2022-08-25T11:56:55;36.20;65.40
8593;DHT22;4334;49.982;8.398;2022-08-25T11:59:59;37.00;62.80
8593;DHT22;4334;49.982;8.398;2022-08-25T12:02:30;36.30;62.40
8593;DHT22;4334;49.982;8.398;2022-08-25T12:04:58;33.50;66.60
8593;DHT22;4334;49.982;8.398;2022-08-25T12:07:29;31.80;70.10
8593;DHT22;4334;49.982;8.398;2022-08-25T12:10:19;31.30;72.00
8593;DHT22;4334;49.982;8.398;2022-08-25T12:13:04;31.10;72.40
8593;DHT22;4334;49.982;8.398;2022-08-25T12:15:57;31.90;72.60
8593;DHT22;4334;49.982;8.398;2022-08-25T12:18:42;33.20;69.70
8593;DHT22;4334;49.982;8.398;2022-08-25T12:21:30;34.60;65.70
8593;DHT22;4334;49.982;8.398;2022-08-25T12:24:19;34.50;65.30
8593;DHT22;4334;49.982;8.398;2022-08-25T12:26:55;33.50;68.10
8593;DHT22;4334;49.982;8.398;2022-08-25T12:29:39;32.50;69.70
8593;DHT22;4334;49.982;8.398;2022-08-25T12:32:20;33.20;68.90
8593;DHT22;4334;49.982;8.398;2022-08-25T12:35:25;34.40;66.90
8593;DHT22;4334;49.982;8.398;2022-08-25T12:37:57;33.50;67.50
8593;DHT22;4334;49.982;8.398;2022-08-25T12:40:28;33.00;68.30
8593;DHT22;4334;49.982;8.398;2022-08-25T12:43:05;32.30;70.40
8593;DHT22;4334;49.982;8.398;2022-08-25T12:45:37;31.80;70.00
8593;DHT22;4334;49.982;8.398;2022-08-25T12:51:07;31.70;71.60
8593;DHT22;4334;49.982;8.398;2022-08-25T12:53:38;31.40;71.80
8593;DHT22;4334;49.982;8.398;2022-08-25T12:56:07;31.70;71.70
8593;DHT22;4334;49.982;8.398;2022-08-25T12:58:47;31.60;71.50
8593;DHT22;4334;49.982;8.398;2022-08-25T13:01:21;32.50;68.90
8593;DHT22;4334;49.982;8.398;2022-08-25T13:07:11;32.40;69.90
8593;DHT22;4334;49.982;8.398;2022-08-25T13:10:07;32.50;69.40
8593;DHT22;4334;49.982;8.398;2022-08-25T13:12:40;32.20;69.80
8593;DHT22;4334;49.982;8.398;2022-08-25T13:15:14;31.50;71.00
8593;DHT22;4334;49.982;8.398;2022-08-25T13:17:41;31.20;71.00
8593;DHT22;4334;49.982;8.398;2022-08-25T13:20:13;31.00;71.70
8593;DHT22;4334;49.982;8.398;2022-08-25T13:22:43;31.10;71.30
8593;DHT22;4334;49.982;8.398;2022-08-25T13:25:15;31.20;71.40
8593;DHT22;4334;49.982;8.398;2022-08-25T13:27:47;31.10;72.00
8593;DHT22;4334;49.982;8.398;2022-08-25T13:30:23;31.50;70.90
8593;DHT22;4334;49.982;8.398;2022-08-25T13:32:50;31.50;70.70
8593;DHT22;4334;49.982;8.398;2022-08-25T13:35:20;31.50;70.50
8593;DHT22;4334;49.982;8.398;2022-08-25T13:37:48;32.50;68.10
8593;DHT22;4334;49.982;8.398;2022-08-25T13:40:22;32.70;68.10
8593;DHT22;4334;49.982;8.398;2022-08-25T13:42:50;33.20;66.90
8593;DHT22;4334;49.982;8.398;2022-08-25T13:45:20;33.30;67.30
8593;DHT22;4334;49.982;8.398;2022-08-25T13:47:48;35.20;62.30
8593;DHT22;4334;49.982;8.398;2022-08-25T13:50:20;35.20;63.10
8593;DHT22;4334;49.982;8.398;2022-08-25T13:52:49;35.20;63.90
8593;DHT22;4334;49.982;8.398;2022-08-25T13:55:21;34.60;61.90
8593;DHT22;4334;49.982;8.398;2022-08-25T13:57:48;34.70;62.30
8593;DHT22;4334;49.982;8.398;2022-08-25T14:00:31;34.80;62.50
8593;DHT22;4334;49.982;8.398;2022-08-25T14:03:00;35.10;61.80
8593;DHT22;4334;49.982;8.398;2022-08-25T14:05:34;35.50;61.50
8593;DHT22;4334;49.982;8.398;2022-08-25T14:08:03;35.50;59.50
8593;DHT22;4334;49.982;8.398;2022-08-25T14:10:34;35.50;60.40
8593;DHT22;4334;49.982;8.398;2022-08-25T14:13:14;35.50;60.90
8593;DHT22;4334;49.982;8.398;2022-08-25T14:15:44;35.70;60.10
8593;DHT22;4334;49.982;8.398;2022-08-25T14:18:16;35.30;59.80
8593;DHT22;4334;49.982;8.398;2022-08-25T14:20:47;33.50;61.60
8593;DHT22;4334;49.982;8.398;2022-08-25T14:23:19;32.90;63.50
8593;DHT22;4334;49.982;8.398;2022-08-25T14:25:47;33.40;62.10
8593;DHT22;4334;49.982;8.398;2022-08-25T14:28:16;33.80;62.30
8593;DHT22;4334;49.982;8.398;2022-08-25T14:30:47;34.20;61.70
8593;DHT22;4334;49.982;8.398;2022-08-25T14:33:16;34.40;60.30
8593;DHT22;4334;49.982;8.398;2022-08-25T14:35:47;34.40;60.40
8593;DHT22;4334;49.982;8.398;2022-08-25T14:38:14;34.50;60.20
8593;DHT22;4334;49.982;8.398;2022-08-25T14:40:42;34.60;60.50
8593;DHT22;4334;49.982;8.398;2022-08-25T14:43:09;34.60;59.80
8593;DHT22;4334;49.982;8.398;2022-08-25T14:45:37;34.60;60.10
8593;DHT22;4334;49.982;8.398;2022-08-25T14:48:08;35.00;59.20
8593;DHT22;4334;49.982;8.398;2022-08-25T14:50:36;34.60;59.80
8593;DHT22;4334;49.982;8.398;2022-08-25T14:53:02;35.10;59.00
8593;DHT22;4334;49.982;8.398;2022-08-25T14:55:29;35.60;58.90
8593;DHT22;4334;49.982;8.398;2022-08-25T14:57:56;35.80;58.50
8593;DHT22;4334;49.982;8.398;2022-08-25T15:00:23;35.60;58.70
8593;DHT22;4334;49.982;8.398;2022-08-25T15:02:50;35.40;59.10
8593;DHT22;4334;49.982;8.398;2022-08-25T15:05:22;36.10;58.80
8593;DHT22;4334;49.982;8.398;2022-08-25T15:07:52;36.30;58.10
8593;DHT22;4334;49.982;8.398;2022-08-25T15:10:37;36.30;58.50
8593;DHT22;4334;49.982;8.398;2022-08-25T15:13:04;35.20;58.70
8593;DHT22;4334;49.982;8.398;2022-08-25T15:15:31;34.10;60.00
8593;DHT22;4334;49.982;8.398;2022-08-25T15:17:58;33.70;60.90
8593;DHT22;4334;49.982;8.398;2022-08-25T15:20:26;33.70;60.50
8593;DHT22;4334;49.982;8.398;2022-08-25T15:22:53;33.80;61.70
8593;DHT22;4334;49.982;8.398;2022-08-25T15:25:20;35.70;58.40
8593;DHT22;4334;49.982;8.398;2022-08-25T15:27:47;36.40;58.20
8593;DHT22;4334;49.982;8.398;2022-08-25T15:30:14;37.20;56.90
8593;DHT22;4334;49.982;8.398;2022-08-25T15:32:41;37.20;56.70
8593;DHT22;4334;49.982;8.398;2022-08-25T15:35:08;37.10;56.20
8593;DHT22;4334;49.982;8.398;2022-08-25T15:37:36;35.60;58.30
8593;DHT22;4334;49.982;8.398;2022-08-25T15:40:04;33.90;59.70
8593;DHT22;4334;49.982;8.398;2022-08-25T15:42:32;32.70;61.30
8593;DHT22;4334;49.982;8.398;2022-08-25T15:44:58;33.40;60.70
8593;DHT22;4334;49.982;8.398;2022-08-25T15:47:25;33.30;60.30
8593;DHT22;4334;49.982;8.398;2022-08-25T15:50:00;33.30;61.00
8593;DHT22;4334;49.982;8.398;2022-08-25T15:52:27;33.20;61.20
8593;DHT22;4334;49.982;8.398;2022-08-25T15:54:55;34.00;60.40
8593;DHT22;4334;49.982;8.398;2022-08-25T15:57:22;33.80;59.60
8593;DHT22;4334;49.982;8.398;2022-08-25T15:59:49;33.80;60.40
8593;DHT22;4334;49.982;8.398;2022-08-25T16:02:16;34.80;59.30
8593;DHT22;4334;49.982;8.398;2022-08-25T16:04:43;35.60;58.50
8593;DHT22;4334;49.982;8.398;2022-08-25T16:07:10;36.40;56.70
8593;DHT22;4334;49.982;8.398;2022-08-25T16:09:37;36.30;56.70
8593;DHT22;4334;49.982;8.398;2022-08-25T16:12:05;36.20;58.00
8593;DHT22;4334;49.982;8.398;2022-08-25T16:14:32;35.70;58.10
8593;DHT22;4334;49.982;8.398;2022-08-25T16:16:59;35.70;58.30
8593;DHT22;4334;49.982;8.398;2022-08-25T16:19:26;36.00;58.00
8593;DHT22;4334;49.982;8.398;2022-08-25T16:21:53;35.80;57.90
8593;DHT22;4334;49.982;8.398;2022-08-25T16:24:20;36.10;58.60
8593;DHT22;4334;49.982;8.398;2022-08-25T16:26:46;35.60;58.90
8593;DHT22;4334;49.982;8.398;2022-08-25T16:29:16;35.00;59.90
8593;DHT22;4334;49.982;8.398;2022-08-25T16:31:43;34.70;59.80
8593;DHT22;4334;49.982;8.398;2022-08-25T16:34:10;34.70;59.70
8593;DHT22;4334;49.982;8.398;2022-08-25T16:36:37;34.10;60.50
8593;DHT22;4334;49.982;8.398;2022-08-25T16:39:04;34.00;61.10
8593;DHT22;4334;49.982;8.398;2022-08-25T16:41:31;32.70;62.10
8593;DHT22;4334;49.982;8.398;2022-08-25T16:44:00;31.80;63.10
8593;DHT22;4334;49.982;8.398;2022-08-25T16:46:28;32.20;63.50
8593;DHT22;4334;49.982;8.398;2022-08-25T16:48:59;33.50;62.00
8593;DHT22;4334;49.982;8.398;2022-08-25T16:51:26;34.00;61.30
8593;DHT22;4334;49.982;8.398;2022-08-25T16:53:52;33.60;61.60
8593;DHT22;4334;49.982;8.398;2022-08-25T16:56:37;33.00;62.20
8593;DHT22;4334;49.982;8.398;2022-08-25T16:59:07;32.80;62.80
8593;DHT22;4334;49.982;8.398;2022-08-25T17:01:36;32.90;62.80
8593;DHT22;4334;49.982;8.398;2022-08-25T17:04:06;33.00;62.10
8593;DHT22;4334;49.982;8.398;2022-08-25T17:06:35;32.90;62.60
8593;DHT22;4334;49.982;8.398;2022-08-25T17:09:03;33.00;62.80
8593;DHT22;4334;49.982;8.398;2022-08-25T17:11:32;32.70;62.20
8593;DHT22;4334;49.982;8.398;2022-08-25T17:14:02;32.00;63.20
8593;DHT22;4334;49.982;8.398;2022-08-25T17:16:31;31.30;64.20
8593;DHT22;4334;49.982;8.398;2022-08-25T17:19:02;30.80;65.20
8593;DHT22;4334;49.982;8.398;2022-08-25T17:21:31;30.60;65.70
8593;DHT22;4334;49.982;8.398;2022-08-25T17:26:27;30.30;66.50
8593;DHT22;4334;49.982;8.398;2022-08-25T17:28:54;30.20;66.90
8593;DHT22;4334;49.982;8.398;2022-08-25T17:31:21;30.10;67.50
8593;DHT22;4334;49.982;8.398;2022-08-25T17:36:17;30.00;67.80
8593;DHT22;4334;49.982;8.398;2022-08-25T17:38:44;30.10;68.20
8593;DHT22;4334;49.982;8.398;2022-08-25T17:43:40;29.80;68.20
8593;DHT22;4334;49.982;8.398;2022-08-25T17:46:09;30.00;68.20
8593;DHT22;4334;49.982;8.398;2022-08-25T17:48:37;29.90;68.60
8593;DHT22;4334;49.982;8.398;2022-08-25T17:51:05;29.70;69.00
8593;DHT22;4334;49.982;8.398;2022-08-25T17:53:34;29.50;69.30
8593;DHT22;4334;49.982;8.398;2022-08-25T17:56:03;29.50;69.90
8593;DHT22;4334;49.982;8.398;2022-08-25T17:58:30;29.30;69.80
8593;DHT22;4334;49.982;8.398;2022-08-25T18:00:58;29.20;70.10
8593;DHT22;4334;49.982;8.398;2022-08-25T18:03:25;29.20;70.40
8593;DHT22;4334;49.982;8.398;2022-08-25T18:08:20;29.00;70.90
8593;DHT22;4334;49.982;8.398;2022-08-25T18:10:48;28.90;71.20
8593;DHT22;4334;49.982;8.398;2022-08-25T18:13:15;28.90;71.30
8593;DHT22;4334;49.982;8.398;2022-08-25T18:18:09;28.90;71.70
8593;DHT22;4334;49.982;8.398;2022-08-25T18:20:36;28.80;71.50
8593;DHT22;4334;49.982;8.398;2022-08-25T18:25:30;28.70;72.10
8593;DHT22;4334;49.982;8.398;2022-08-25T18:27:58;28.70;71.80
8593;DHT22;4334;49.982;8.398;2022-08-25T18:30:25;28.70;72.30
8593;DHT22;4334;49.982;8.398;2022-08-25T18:32:51;28.50;73.00
8593;DHT22;4334;49.982;8.398;2022-08-25T18:35:18;28.50;72.90
8593;DHT22;4334;49.982;8.398;2022-08-25T18:37:45;28.30;73.40
8593;DHT22;4334;49.982;8.398;2022-08-25T18:40:31;28.10;74.00
8593;DHT22;4334;49.982;8.398;2022-08-25T18:43:00;27.80;75.30
8593;DHT22;4334;49.982;8.398;2022-08-25T18:45:30;27.90;74.40
8593;DHT22;4334;49.982;8.398;2022-08-25T18:47:57;27.90;75.00
8593;DHT22;4334;49.982;8.398;2022-08-25T18:50:26;27.70;75.50
8593;DHT22;4334;49.982;8.398;2022-08-25T18:52:53;27.60;76.00
8593;DHT22;4334;49.982;8.398;2022-08-25T18:55:20;27.40;76.30
8593;DHT22;4334;49.982;8.398;2022-08-25T18:57:47;27.40;76.20
8593;DHT22;4334;49.982;8.398;2022-08-25T19:00:19;27.50;77.10
8593;DHT22;4334;49.982;8.398;2022-08-25T19:02:47;27.60;75.80
8593;DHT22;4334;49.982;8.398;2022-08-25T19:05:15;27.60;76.00
8593;DHT22;4334;49.982;8.398;2022-08-25T19:07:42;27.50;76.70
8593;DHT22;4334;49.982;8.398;2022-08-25T19:12:37;27.10;77.90
8593;DHT22;4334;49.982;8.398;2022-08-25T19:15:06;27.10;77.80
8593;DHT22;4334;49.982;8.398;2022-08-25T19:17:35;27.00;77.80
8593;DHT22;4334;49.982;8.398;2022-08-25T19:20:02;27.00;78.70
8593;DHT22;4334;49.982;8.398;2022-08-25T19:22:30;27.10;78.50
8593;DHT22;4334;49.982;8.398;2022-08-25T19:24:57;27.10;79.00
8593;DHT22;4334;49.982;8.398;2022-08-25T19:27:24;27.10;78.80
8593;DHT22;4334;49.982;8.398;2022-08-25T19:29:51;27.00;78.60
8593;DHT22;4334;49.982;8.398;2022-08-25T19:32:18;27.00;79.50
8593;DHT22;4334;49.982;8.398;2022-08-25T19:34:46;26.90;79.30
8593;DHT22;4334;49.982;8.398;2022-08-25T19:37:15;26.80;79.40
8593;DHT22;4334;49.982;8.398;2022-08-25T19:39:45;27.00;79.20
8593;DHT22;4334;49.982;8.398;2022-08-25T19:42:12;27.00;79.50
8593;DHT22;4334;49.982;8.398;2022-08-25T19:44:39;27.20;79.50
8593;DHT22;4334;49.982;8.398;2022-08-25T19:47:06;27.30;79.00
8593;DHT22;4334;49.982;8.398;2022-08-25T19:49:34;27.20;79.50
8593;DHT22;4334;49.982;8.398;2022-08-25T19:52:04;27.10;80.40
8593;DHT22;4334;49.982;8.398;2022-08-25T19:54:34;27.00;80.20
8593;DHT22;4334;49.982;8.398;2022-08-25T20:06:54;27.20;79.50
8593;DHT22;4334;49.982;8.398;2022-08-25T20:09:23;26.90;80.30
8593;DHT22;4334;49.982;8.398;2022-08-25T20:11:50;26.60;81.40
8593;DHT22;4334;49.982;8.398;2022-08-25T20:16:44;26.40;82.10
8593;DHT22;4334;49.982;8.398;2022-08-25T20:19:11;26.40;82.50
8593;DHT22;4334;49.982;8.398;2022-08-25T20:21:38;26.40;82.60
8593;DHT22;4334;49.982;8.398;2022-08-25T20:24:08;26.30;83.60
8593;DHT22;4334;49.982;8.398;2022-08-25T20:26:54;26.10;82.90
8593;DHT22;4334;49.982;8.398;2022-08-25T20:29:20;26.20;83.70
8593;DHT22;4334;49.982;8.398;2022-08-25T20:39:09;26.00;84.10
8593;DHT22;4334;49.982;8.398;2022-08-25T20:41:36;25.90;84.20
8593;DHT22;4334;49.982;8.398;2022-08-25T20:44:04;25.90;84.00
8593;DHT22;4334;49.982;8.398;2022-08-25T20:46:32;25.90;83.70
8593;DHT22;4334;49.982;8.398;2022-08-25T20:51:26;25.70;84.30
8593;DHT22;4334;49.982;8.398;2022-08-25T20:53:53;25.80;84.50
8593;DHT22;4334;49.982;8.398;2022-08-25T20:56:20;25.70;85.00
8593;DHT22;4334;49.982;8.398;2022-08-25T20:58:47;25.60;85.10
8593;DHT22;4334;49.982;8.398;2022-08-25T21:01:17;25.60;85.70
8593;DHT22;4334;49.982;8.398;2022-08-25T21:03:44;25.30;86.30
8593;DHT22;4334;49.982;8.398;2022-08-25T21:06:12;25.30;87.10
8593;DHT22;4334;49.982;8.398;2022-08-25T21:08:40;25.20;87.00
8593;DHT22;4334;49.982;8.398;2022-08-25T21:11:10;25.20;87.80
8593;DHT22;4334;49.982;8.398;2022-08-25T21:13:36;25.00;88.20